createdAt,value
2022-12-31T00:01:11.267Z,97481.81
2022-12-31T00:03:40.568Z,97482.66
2022-12-31T00:06:17.982Z,97485.44
2022-12-31T00:08:46.466Z,97481.66
2022-12-31T00:11:15.434Z,97479.47
2022-12-31T00:13:46.560Z,97489.19
2022-12-31T00:16:17.352Z,97489.09
2022-12-31T00:18:46.575Z,97496.25
2022-12-31T00:21:16.157Z,97492.00
2022-12-31T00:23:44.856Z,97502.03
2022-12-31T00:26:15.604Z,97502.53
2022-12-31T00:28:46.455Z,97500.63
2022-12-31T00:31:17.006Z,97511.00
2022-12-31T00:33:46.515Z,97498.56
2022-12-31T00:36:16.882Z,97507.88
2022-12-31T00:38:47.130Z,97504.56
2022-12-31T00:41:17.016Z,97500.22
2022-12-31T00:43:47.559Z,97512.00
2022-12-31T00:46:16.854Z,97508.50
2022-12-31T00:48:45.873Z,97518.25
2022-12-31T00:51:17.248Z,97517.28
2022-12-31T00:53:46.356Z,97518.63
2022-12-31T00:56:17.094Z,97526.81
2022-12-31T00:58:46.983Z,97532.00
2022-12-31T01:01:18.967Z,97534.09
2022-12-31T01:03:49.217Z,97525.50
2022-12-31T01:06:18.364Z,97526.28
2022-12-31T01:08:49.614Z,97530.03
2022-12-31T01:11:23.018Z,97536.03
2022-12-31T01:13:56.135Z,97536.56
2022-12-31T01:16:28.172Z,97537.50
2022-12-31T01:18:59.131Z,97539.34
2022-12-31T01:21:28.513Z,97542.25
2022-12-31T01:23:57.100Z,97548.47
2022-12-31T01:26:25.600Z,97541.41
2022-12-31T01:28:55.663Z,97553.25
2022-12-31T01:31:25.785Z,97548.59
2022-12-31T01:33:54.781Z,97562.88
2022-12-31T01:36:26.628Z,97554.59
2022-12-31T01:38:56.562Z,97559.69
2022-12-31T01:41:27.114Z,97556.97
2022-12-31T01:43:59.286Z,97570.13
2022-12-31T01:46:34.552Z,97574.44
2022-12-31T01:49:06.555Z,97575.38
2022-12-31T01:51:36.217Z,97560.88
2022-12-31T01:54:08.355Z,97564.16
2022-12-31T01:56:39.637Z,97574.94
2022-12-31T01:59:12.097Z,97574.09
2022-12-31T02:01:40.662Z,97574.44
2022-12-31T02:04:13.121Z,97568.78
2022-12-31T02:06:45.508Z,97581.78
2022-12-31T02:09:13.956Z,97571.81
2022-12-31T02:11:42.817Z,97576.53
2022-12-31T02:14:15.747Z,97575.81
2022-12-31T02:16:53.221Z,97583.19
2022-12-31T02:19:45.593Z,97583.97
2022-12-31T02:22:28.095Z,97579.25
2022-12-31T02:25:24.791Z,97570.91
2022-12-31T02:28:04.114Z,97574.53
2022-12-31T02:30:35.890Z,97580.75
2022-12-31T02:33:10.914Z,97576.81
2022-12-31T02:35:47.671Z,97576.97
2022-12-31T02:38:22.725Z,97578.00
2022-12-31T02:40:53.589Z,97578.94
2022-12-31T02:43:22.026Z,97576.53
2022-12-31T02:45:59.281Z,97568.06
2022-12-31T02:48:38.273Z,97583.41
2022-12-31T02:51:20.157Z,97583.41
2022-12-31T02:54:12.760Z,97580.16
2022-12-31T02:56:50.556Z,97577.34
2022-12-31T02:59:43.480Z,97578.88
2022-12-31T03:02:19.718Z,97580.22
2022-12-31T03:04:52.376Z,97580.44
2022-12-31T03:07:23.191Z,97579.22
2022-12-31T03:09:52.130Z,97575.13
2022-12-31T03:12:40.787Z,97577.41
2022-12-31T03:15:20.153Z,97570.91
2022-12-31T03:17:57.283Z,97578.16
2022-12-31T03:20:47.030Z,97568.81
2022-12-31T03:23:19.242Z,97581.47
2022-12-31T03:25:47.099Z,97580.84
2022-12-31T03:28:18.918Z,97568.09
2022-12-31T03:30:49.787Z,97569.25
2022-12-31T03:33:20.494Z,97575.28
2022-12-31T03:35:50.455Z,97567.69
2022-12-31T03:38:19.621Z,97561.50
2022-12-31T03:40:50.498Z,97577.84
2022-12-31T03:43:20.261Z,97570.16
2022-12-31T03:45:49.638Z,97587.97
2022-12-31T03:48:20.218Z,97589.72
2022-12-31T03:50:48.708Z,97608.53
2022-12-31T03:53:17.577Z,97593.75
2022-12-31T03:55:46.044Z,97607.91
2022-12-31T03:58:14.526Z,97600.13
2022-12-31T04:00:44.000Z,97597.41
2022-12-31T04:03:12.546Z,97595.16
2022-12-31T04:05:42.433Z,97598.94
2022-12-31T04:08:10.920Z,97595.63
2022-12-31T04:10:39.367Z,97598.81
2022-12-31T04:13:07.804Z,97614.41
2022-12-31T04:15:36.250Z,97600.72
2022-12-31T04:18:04.978Z,97604.13
2022-12-31T04:20:33.387Z,97607.06
2022-12-31T04:23:03.319Z,97621.16
2022-12-31T04:25:40.513Z,97617.53
2022-12-31T04:28:09.045Z,97624.53
2022-12-31T04:30:37.521Z,97618.84
2022-12-31T04:33:06.025Z,97607.03
2022-12-31T04:35:34.537Z,97609.94
2022-12-31T04:38:04.732Z,97611.13
2022-12-31T04:40:33.303Z,97623.22
2022-12-31T04:43:01.745Z,97627.50
2022-12-31T04:45:30.179Z,97642.75
2022-12-31T04:47:58.602Z,97639.19
2022-12-31T04:50:27.056Z,97619.47
2022-12-31T04:52:55.522Z,97632.22
2022-12-31T04:55:25.314Z,97641.66
2022-12-31T04:57:53.817Z,97633.03
2022-12-31T05:00:22.495Z,97633.53
2022-12-31T05:02:51.210Z,97623.72
2022-12-31T05:05:19.789Z,97654.47
2022-12-31T05:07:48.362Z,97650.44
2022-12-31T05:10:17.079Z,97662.50
2022-12-31T05:12:46.889Z,97667.94
2022-12-31T05:15:15.424Z,97670.06
2022-12-31T05:17:44.045Z,97675.19
2022-12-31T05:20:13.322Z,97669.00
2022-12-31T05:22:41.863Z,97675.59
2022-12-31T05:25:10.359Z,97693.16
2022-12-31T05:27:39.913Z,97694.13
2022-12-31T05:30:11.015Z,97683.56
2022-12-31T05:32:39.801Z,97687.53
2022-12-31T05:35:08.955Z,97685.63
2022-12-31T05:37:37.517Z,97700.22
2022-12-31T05:40:07.473Z,97696.66
2022-12-31T05:42:36.253Z,97698.44
2022-12-31T05:45:05.315Z,97709.28
2022-12-31T05:47:35.218Z,97707.94
2022-12-31T05:50:03.682Z,97696.56
2022-12-31T05:52:32.127Z,97702.66
2022-12-31T05:55:00.617Z,97711.31
2022-12-31T05:57:29.094Z,97715.78
2022-12-31T05:59:57.607Z,97706.13
2022-12-31T06:02:26.198Z,97718.38
2022-12-31T06:04:56.074Z,97705.69
2022-12-31T06:07:24.598Z,97705.69
2022-12-31T06:09:53.093Z,97705.88
2022-12-31T06:12:21.567Z,97716.38
2022-12-31T06:14:50.013Z,97722.94
2022-12-31T06:17:19.112Z,97731.94
2022-12-31T06:19:49.385Z,97726.13
2022-12-31T06:22:19.240Z,97726.94
2022-12-31T06:24:48.593Z,97725.78
2022-12-31T06:27:17.107Z,97734.69
2022-12-31T06:29:45.863Z,97741.34
2022-12-31T06:32:14.367Z,97743.22
2022-12-31T06:34:42.819Z,97742.69
2022-12-31T06:37:11.627Z,97750.19
2022-12-31T06:39:41.409Z,97742.19
2022-12-31T06:42:09.667Z,97741.25
2022-12-31T06:44:38.704Z,97758.38
2022-12-31T06:47:07.136Z,97749.75
2022-12-31T06:49:35.604Z,97748.59
2022-12-31T06:52:04.100Z,97743.84
2022-12-31T06:54:32.861Z,97746.50
2022-12-31T06:57:03.579Z,97751.03
2022-12-31T06:59:32.646Z,97740.63
2022-12-31T07:02:14.640Z,97741.28
2022-12-31T07:05:03.248Z,97755.31
2022-12-31T07:07:36.026Z,97750.59
2022-12-31T07:10:17.526Z,97757.13
2022-12-31T07:13:02.631Z,97750.25
2022-12-31T07:15:48.131Z,97749.09
2022-12-31T07:18:25.097Z,97752.41
2022-12-31T07:20:54.188Z,97745.28
2022-12-31T07:23:23.317Z,97735.03
2022-12-31T07:25:57.296Z,97725.66
2022-12-31T07:28:42.142Z,97739.03
2022-12-31T07:31:19.670Z,97746.06
2022-12-31T07:33:58.841Z,97752.41
2022-12-31T07:36:44.852Z,97752.00
2022-12-31T07:39:16.454Z,97760.88
2022-12-31T07:41:55.440Z,97763.56
2022-12-31T07:44:42.082Z,97761.06
2022-12-31T07:47:21.033Z,97763.88
2022-12-31T07:49:50.163Z,97768.13
2022-12-31T07:52:19.667Z,97769.69
2022-12-31T07:54:48.678Z,97778.91
2022-12-31T07:57:19.035Z,97782.25
2022-12-31T08:00:04.943Z,97780.25
2022-12-31T08:03:01.258Z,97785.44
2022-12-31T08:05:34.712Z,97783.88
2022-12-31T08:08:19.786Z,97778.78
2022-12-31T08:10:59.227Z,97793.63
2022-12-31T08:13:28.654Z,97797.78
2022-12-31T08:15:59.025Z,97805.38
2022-12-31T08:18:27.933Z,97795.16
2022-12-31T08:21:09.201Z,97797.88
2022-12-31T08:23:46.861Z,97808.22
2022-12-31T08:26:24.681Z,97817.84
2022-12-31T08:29:06.224Z,97818.13
2022-12-31T08:31:47.804Z,97826.44
2022-12-31T08:34:23.012Z,97822.50
2022-12-31T08:36:57.662Z,97830.25
2022-12-31T08:39:39.229Z,97817.91
2022-12-31T08:42:21.420Z,97820.63
2022-12-31T08:44:59.722Z,97814.97
2022-12-31T08:47:39.491Z,97813.56
2022-12-31T08:50:14.892Z,97809.94
2022-12-31T08:52:44.163Z,97812.97
2022-12-31T08:55:18.760Z,97820.81
2022-12-31T08:57:56.731Z,97824.84
2022-12-31T09:00:27.425Z,97828.56
2022-12-31T09:03:24.437Z,97830.31
2022-12-31T09:06:02.314Z,97830.56
2022-12-31T09:08:40.627Z,97842.16
2022-12-31T09:11:20.909Z,97840.28
2022-12-31T09:14:18.527Z,97850.34
2022-12-31T09:16:56.282Z,97847.63
2022-12-31T09:19:26.267Z,97853.06
2022-12-31T09:21:55.389Z,97861.09
2022-12-31T09:24:24.408Z,97857.00
2022-12-31T09:27:06.857Z,97852.03
2022-12-31T09:29:48.384Z,97850.88
2022-12-31T09:32:25.135Z,97850.03
2022-12-31T09:34:59.196Z,97843.41
2022-12-31T09:37:39.572Z,97846.59
2022-12-31T09:40:39.914Z,97839.75
2022-12-31T09:43:38.126Z,97845.03
2022-12-31T09:46:26.032Z,97851.69
2022-12-31T09:49:22.748Z,97847.66
2022-12-31T09:52:02.399Z,97848.63
2022-12-31T09:54:53.393Z,97845.41
2022-12-31T09:57:35.138Z,97850.84
2022-12-31T10:00:07.055Z,97842.66
2022-12-31T11:39:40.657Z,97774.44
2022-12-31T11:43:31.255Z,97785.34
2022-12-31T11:46:39.799Z,97776.56
2022-12-31T11:49:18.218Z,97774.59
2022-12-31T11:52:19.527Z,97781.59
2022-12-31T11:55:03.803Z,97773.09
2022-12-31T11:57:35.593Z,97767.91
2022-12-31T12:00:16.660Z,97769.13
2022-12-31T12:02:48.846Z,97772.16
2022-12-31T12:05:21.167Z,97772.59
2022-12-31T12:07:50.610Z,97762.34
2022-12-31T12:10:29.121Z,97768.72
2022-12-31T12:13:02.220Z,97776.00
2022-12-31T12:15:35.627Z,97771.31
2022-12-31T12:18:09.390Z,97765.00
2022-12-31T12:20:41.038Z,97762.66
2022-12-31T12:23:16.973Z,97753.41
2022-12-31T12:25:45.901Z,97759.06
2022-12-31T12:28:20.894Z,97760.28
2022-12-31T12:30:57.371Z,97746.66
2022-12-31T12:33:26.561Z,97749.41
2022-12-31T12:35:55.053Z,97744.06
2022-12-31T12:38:24.712Z,97742.38
2022-12-31T12:40:55.683Z,97746.66
2022-12-31T12:43:27.484Z,97744.03
2022-12-31T12:46:01.661Z,97733.19
2022-12-31T12:48:39.299Z,97744.91
2022-12-31T12:51:20.021Z,97740.59
2022-12-31T12:53:58.023Z,97747.78
2022-12-31T12:56:38.144Z,97759.91
2022-12-31T12:59:41.075Z,97750.94
2022-12-31T13:02:28.452Z,97749.72
2022-12-31T13:05:09.809Z,97751.91
2022-12-31T13:07:49.538Z,97746.00
2022-12-31T13:10:34.651Z,97742.53
2022-12-31T13:13:23.794Z,97727.53
2022-12-31T13:16:02.287Z,97739.50
2022-12-31T13:18:49.614Z,97736.28
2022-12-31T13:21:30.778Z,97732.16
2022-12-31T13:24:04.943Z,97733.13
2022-12-31T13:26:37.756Z,97735.19
2022-12-31T13:29:10.146Z,97737.66
2022-12-31T13:31:41.329Z,97731.13
2022-12-31T13:34:18.922Z,97731.53
2022-12-31T13:36:51.297Z,97721.91
2022-12-31T13:39:24.459Z,97721.47
2022-12-31T13:41:59.972Z,97701.50
2022-12-31T13:44:30.144Z,97712.38
2022-12-31T13:47:05.998Z,97712.88
2022-12-31T13:49:42.923Z,97720.91
2022-12-31T13:52:25.489Z,97718.56
2022-12-31T13:54:59.494Z,97713.00
2022-12-31T13:57:40.939Z,97711.59
2022-12-31T14:00:20.212Z,97715.28
2022-12-31T14:02:57.789Z,97723.66
2022-12-31T14:05:33.358Z,97719.78
2022-12-31T14:08:03.419Z,97721.31
2022-12-31T14:10:47.457Z,97710.34
2022-12-31T14:13:35.082Z,97719.03
2022-12-31T14:16:16.019Z,97713.06
2022-12-31T14:18:52.215Z,97718.78
2022-12-31T14:21:27.702Z,97715.81
2022-12-31T14:24:06.559Z,97720.34
2022-12-31T14:26:39.714Z,97727.25
2022-12-31T14:29:22.479Z,97730.91
2022-12-31T14:32:18.694Z,97729.19
2022-12-31T14:34:57.105Z,97728.88
2022-12-31T14:37:34.966Z,97727.38
2022-12-31T14:40:19.434Z,97722.88
2022-12-31T14:43:02.003Z,97725.72
2022-12-31T14:45:44.837Z,97730.91
2022-12-31T14:48:26.574Z,97720.03
2022-12-31T14:50:55.964Z,97725.13
2022-12-31T14:53:27.509Z,97730.31
2022-12-31T14:56:01.010Z,97733.94
2022-12-31T14:58:36.869Z,97740.22
2022-12-31T15:01:08.972Z,97738.47
2022-12-31T15:03:45.353Z,97734.69
2022-12-31T15:06:38.766Z,97734.31
2022-12-31T15:09:18.809Z,97737.50
2022-12-31T15:12:05.004Z,97740.56
2022-12-31T15:14:52.412Z,97735.44
2022-12-31T15:17:31.337Z,97735.88
2022-12-31T15:20:24.276Z,97750.31
2022-12-31T15:22:54.306Z,97740.03
2022-12-31T15:25:29.035Z,97749.06
2022-12-31T15:28:00.366Z,97753.94
2022-12-31T15:30:36.613Z,97749.31
2022-12-31T15:33:09.124Z,97753.91
2022-12-31T15:35:51.436Z,97755.50
2022-12-31T15:38:36.130Z,97753.56
2022-12-31T15:41:25.551Z,97752.22
2022-12-31T15:43:58.738Z,97742.97
2022-12-31T15:46:31.515Z,97747.13
2022-12-31T15:49:07.880Z,97753.38
2022-12-31T15:51:45.724Z,97760.72
2022-12-31T15:54:24.897Z,97749.53
2022-12-31T15:56:55.387Z,97758.25
2022-12-31T15:59:26.105Z,97756.88
2022-12-31T16:01:57.194Z,97754.34
2022-12-31T16:04:27.684Z,97766.13
2022-12-31T16:07:00.345Z,97766.19
2022-12-31T16:09:31.472Z,97770.50
2022-12-31T16:12:03.359Z,97775.25
2022-12-31T16:14:37.732Z,97774.59
2022-12-31T16:17:07.083Z,97777.59
2022-12-31T16:19:41.923Z,97778.53
2022-12-31T16:22:16.799Z,97776.97
2022-12-31T16:25:19.302Z,97781.41
2022-12-31T16:27:36.941Z,97781.88
2022-12-31T16:30:19.209Z,97781.34
2022-12-31T16:32:49.915Z,97787.00
2022-12-31T16:35:24.386Z,97791.13
2022-12-31T16:38:14.092Z,97785.41
2022-12-31T16:40:44.262Z,97789.44
2022-12-31T16:43:27.291Z,97789.44
2022-12-31T16:45:58.467Z,97783.00
2022-12-31T16:48:28.898Z,97785.00
2022-12-31T16:50:58.003Z,97791.09
2022-12-31T16:53:29.793Z,97790.28
2022-12-31T16:56:02.374Z,97788.81
2022-12-31T16:58:35.838Z,97795.06
2022-12-31T17:01:14.526Z,97793.22
2022-12-31T17:03:46.604Z,97791.91
2022-12-31T17:06:17.077Z,97788.81
2022-12-31T17:08:50.834Z,97792.84
2022-12-31T17:11:24.121Z,97793.84
2022-12-31T17:13:57.719Z,97795.97
2022-12-31T17:16:27.115Z,97800.84
2022-12-31T17:18:55.823Z,97801.94
2022-12-31T17:21:27.681Z,97798.19
2022-12-31T17:23:58.755Z,97811.00
2022-12-31T17:26:29.212Z,97797.66
2022-12-31T17:29:01.227Z,97808.84
2022-12-31T17:31:35.841Z,97809.09
2022-12-31T17:34:23.205Z,97797.78
2022-12-31T17:37:03.395Z,97809.59
2022-12-31T17:39:51.194Z,97806.31
2022-12-31T17:42:30.829Z,97810.00
2022-12-31T17:45:03.210Z,97809.66
2022-12-31T17:47:37.086Z,97811.16
2022-12-31T17:50:14.257Z,97805.97
2022-12-31T17:52:42.733Z,97810.81
2022-12-31T17:55:11.359Z,97806.03
2022-12-31T17:57:49.922Z,97808.19
2022-12-31T18:00:21.950Z,97808.44
2022-12-31T18:02:50.495Z,97809.88
2022-12-31T18:05:21.292Z,97811.22
2022-12-31T18:07:50.191Z,97813.31
2022-12-31T18:10:20.783Z,97811.16
2022-12-31T18:12:50.547Z,97824.72
2022-12-31T18:15:22.822Z,97832.34
2022-12-31T18:17:52.246Z,97835.56
2022-12-31T18:20:20.884Z,97829.16
2022-12-31T18:22:49.688Z,97845.06
2022-12-31T18:25:20.241Z,97832.41
2022-12-31T18:27:49.610Z,97834.91
2022-12-31T18:30:18.493Z,97834.59
2022-12-31T18:32:48.582Z,97834.63
2022-12-31T18:36:07.130Z,97836.88
2022-12-31T18:38:12.101Z,97848.06
2022-12-31T18:40:44.040Z,97846.75
2022-12-31T18:43:17.265Z,97850.88
2022-12-31T18:45:46.409Z,97848.59
2022-12-31T18:48:16.728Z,97847.28
2022-12-31T18:50:45.913Z,97840.84
2022-12-31T18:53:17.332Z,97857.25
2022-12-31T18:55:49.511Z,97851.41
2022-12-31T18:58:18.287Z,97846.63
2022-12-31T19:00:48.192Z,97847.69
2022-12-31T19:03:21.808Z,97852.69
2022-12-31T19:05:51.294Z,97856.22
2022-12-31T19:08:21.121Z,97855.16
2022-12-31T19:10:51.792Z,97848.91
2022-12-31T19:13:22.857Z,97858.13
2022-12-31T19:15:53.101Z,97855.34
2022-12-31T19:18:22.973Z,97860.41
2022-12-31T19:20:52.086Z,97864.06
2022-12-31T19:23:22.562Z,97860.31
2022-12-31T19:25:51.351Z,97857.97
2022-12-31T19:28:22.215Z,97867.97
2022-12-31T19:30:50.917Z,97867.59
2022-12-31T19:33:20.088Z,97867.91
2022-12-31T19:35:50.103Z,97873.50
2022-12-31T19:38:19.839Z,97867.75
2022-12-31T19:40:48.969Z,97862.22
2022-12-31T19:43:19.261Z,97871.38
2022-12-31T19:45:49.271Z,97862.88
2022-12-31T19:48:25.845Z,97866.16
2022-12-31T19:51:00.201Z,97874.53
2022-12-31T19:53:28.953Z,97872.19
2022-12-31T19:55:57.386Z,97878.91
2022-12-31T19:58:27.237Z,97880.34
2022-12-31T20:01:02.048Z,97881.16
2022-12-31T20:03:32.583Z,97871.91
2022-12-31T20:06:04.967Z,97875.22
2022-12-31T20:08:34.273Z,97881.91
2022-12-31T20:11:08.802Z,97878.81
2022-12-31T20:13:37.575Z,97879.56
2022-12-31T20:16:08.346Z,97877.09
2022-12-31T20:18:38.222Z,97881.97
2022-12-31T20:21:11.719Z,97877.50
2022-12-31T20:23:40.245Z,97881.41
2022-12-31T20:26:08.859Z,97891.63
2022-12-31T20:28:37.888Z,97885.72
2022-12-31T20:31:07.949Z,97879.75
2022-12-31T20:33:36.693Z,97880.66
2022-12-31T20:36:07.284Z,97879.97
2022-12-31T20:38:37.257Z,97875.78
2022-12-31T20:41:06.183Z,97869.38
2022-12-31T20:43:35.725Z,97865.97
2022-12-31T20:46:10.981Z,97880.16
2022-12-31T20:48:43.925Z,97879.41
2022-12-31T20:51:13.045Z,97879.78
2022-12-31T20:53:47.447Z,97879.94
2022-12-31T20:56:16.344Z,97895.78
2022-12-31T20:58:45.257Z,97873.66
2022-12-31T21:01:14.993Z,97871.16
2022-12-31T21:06:34.670Z,97871.75
2022-12-31T21:09:06.679Z,97878.44
2022-12-31T21:11:53.528Z,97870.56
2022-12-31T21:14:22.232Z,97879.94
2022-12-31T21:16:50.822Z,97880.03
2022-12-31T21:19:19.328Z,97883.84
2022-12-31T21:21:48.101Z,97884.16
2022-12-31T21:24:23.556Z,97888.06
2022-12-31T21:26:52.780Z,97892.06
2022-12-31T21:29:21.248Z,97884.19
2022-12-31T21:31:49.827Z,97890.09
2022-12-31T21:34:18.522Z,97893.13
2022-12-31T21:36:46.988Z,97893.00
2022-12-31T21:39:15.555Z,97907.28
2022-12-31T21:41:54.128Z,97910.75
2022-12-31T21:44:24.450Z,97911.53
2022-12-31T21:47:33.118Z,97905.13
2022-12-31T21:49:45.250Z,97914.84
2022-12-31T21:52:30.575Z,97908.19
2022-12-31T21:55:18.820Z,97906.50
2022-12-31T22:00:56.274Z,97915.25
2022-12-31T22:03:28.527Z,97923.00
2022-12-31T22:06:00.357Z,97921.56
2022-12-31T22:08:30.019Z,97927.22
2022-12-31T22:10:58.822Z,97937.97
2022-12-31T22:13:28.748Z,97933.72
2022-12-31T22:16:04.671Z,97938.19
2022-12-31T22:18:35.599Z,97939.63
2022-12-31T22:21:10.858Z,97938.81
2022-12-31T22:23:44.447Z,97947.03
2022-12-31T22:26:15.370Z,97944.81
2022-12-31T22:28:46.899Z,97944.19
2022-12-31T22:31:16.975Z,97944.34
2022-12-31T22:33:46.189Z,97940.78
2022-12-31T22:36:16.621Z,97950.09
2022-12-31T22:38:45.749Z,97959.03
2022-12-31T22:41:15.853Z,97960.16
2022-12-31T22:43:48.217Z,97957.56
2022-12-31T22:46:18.328Z,97964.16
2022-12-31T22:48:47.453Z,97970.78
2022-12-31T22:51:17.558Z,97983.78
2022-12-31T22:53:46.463Z,97984.13
2022-12-31T22:56:17.800Z,97983.38
2022-12-31T22:58:47.689Z,97983.91
2022-12-31T23:01:18.990Z,97992.75
2022-12-31T23:03:48.493Z,97989.47
2022-12-31T23:06:17.914Z,97976.88
2022-12-31T23:09:06.696Z,97989.34
2022-12-31T23:11:36.233Z,97974.97
2022-12-31T23:14:25.370Z,97985.38
2022-12-31T23:17:29.449Z,97995.91
2022-12-31T23:20:16.381Z,97995.63
2022-12-31T23:23:02.392Z,97988.31
2022-12-31T23:25:32.347Z,97978.94
2022-12-31T23:28:00.859Z,97980.75
2022-12-31T23:30:30.756Z,97987.22
2022-12-31T23:32:59.119Z,97984.97
2022-12-31T23:35:27.678Z,97989.41
2022-12-31T23:37:56.254Z,97999.16
2022-12-31T23:40:34.060Z,97993.84
2022-12-31T23:43:04.463Z,97994.00
2022-12-31T23:45:35.468Z,97994.63
2022-12-31T23:48:04.153Z,98004.25
2022-12-31T23:50:32.658Z,97992.88
2022-12-31T23:53:01.077Z,97990.16
2022-12-31T23:55:29.586Z,97988.44
2022-12-31T23:57:57.983Z,97991.03
